Argonne, South Dakota
Current Conditions -  °F | °C
As of 3:30 PM on Friday 19 Dec 2014 (Local Time) from KMDS Reporting Station
Haze Haze  
Wind Chill: -8°   Ceiling: 400
Heat Index: -2°   Visibility: 4mi
Dew Point: -2°   Wind: 14mph
Humidity: 100%   Direction: 200°SSW
Pressure: 30.05"   Gusts: NA
Location:  44.0529°N, 97.5161°W
Report Text: KMDS 192130Z AUTO 20012KT 4SM BR OVC004 M02/M02 A3005 RMK AO2
Loading
Personal Weather Stations






























Interactive Weather Map New forecast layout! Learn more

10-Day Weather Forecast

Advertisements
Track Severe Weather on mobile